createdAt,value
2023-04-01T00:00:32.409Z,98730.60
2023-04-01T00:05:51.207Z,98732.00
2023-04-01T00:10:57.172Z,98728.20
2023-04-01T00:16:00.319Z,98722.80
2023-04-01T00:21:03.422Z,98725.40
2023-04-01T00:26:08.441Z,98727.60
2023-04-01T00:31:16.080Z,98723.80
2023-04-01T00:36:22.633Z,98724.60
2023-04-01T00:41:27.193Z,98724.60
2023-04-01T00:46:32.972Z,98721.60
2023-04-01T00:51:39.020Z,98722.60
2023-04-01T00:56:50.752Z,98717.60
2023-04-01T01:01:56.106Z,98723.00
2023-04-01T01:07:23.489Z,98725.80
2023-04-01T01:12:41.001Z,98721.20
2023-04-01T01:17:59.342Z,98719.80
2023-04-01T01:23:48.752Z,98719.20
2023-04-01T01:29:18.974Z,98718.00
2023-04-01T01:34:49.075Z,98721.40
2023-04-01T01:40:05.066Z,98726.40
2023-04-01T01:45:15.998Z,98725.40
2023-04-01T01:50:21.118Z,98713.80
2023-04-01T01:55:36.864Z,98714.00
2023-04-01T02:00:42.965Z,98722.00
2023-04-01T02:05:46.971Z,98723.00
2023-04-01T02:11:02.963Z,98717.00
2023-04-01T02:16:16.985Z,98720.00
2023-04-01T02:21:23.391Z,98722.40
2023-04-01T02:26:27.857Z,98709.00
2023-04-01T02:31:35.112Z,98718.80
2023-04-01T02:36:40.898Z,98718.20
2023-04-01T02:41:47.842Z,98721.20
2023-04-01T02:46:50.795Z,98722.60
2023-04-01T02:51:54.178Z,98720.40
2023-04-01T02:56:57.375Z,98728.80
2023-04-01T03:02:00.487Z,98728.00
2023-04-01T03:07:03.712Z,98729.20
2023-04-01T03:12:07.401Z,98728.60
2023-04-01T03:17:10.036Z,98729.40
2023-04-01T03:22:13.475Z,98732.40
2023-04-01T03:27:20.525Z,98739.40
2023-04-01T03:32:23.286Z,98742.00
2023-04-01T03:37:27.431Z,98747.40
2023-04-01T03:42:34.950Z,98751.00
2023-04-01T03:47:37.749Z,98739.80
2023-04-01T03:52:40.767Z,98741.20
2023-04-01T03:57:43.367Z,98743.60
2023-04-01T04:02:46.488Z,98744.40
2023-04-01T04:07:49.352Z,98753.80
2023-04-01T04:12:53.802Z,98760.60
2023-04-01T04:17:57.918Z,98761.60
2023-04-01T04:23:01.562Z,98768.00
2023-04-01T04:28:06.375Z,98776.80
2023-04-01T04:33:11.393Z,98767.00
2023-04-01T04:38:14.791Z,98776.20
2023-04-01T04:43:19.269Z,98773.00
2023-04-01T04:48:21.987Z,98773.60
2023-04-01T04:53:26.291Z,98775.80
2023-04-01T04:58:29.662Z,98772.60
2023-04-01T05:03:32.307Z,98779.60
2023-04-01T05:08:35.926Z,98788.00
2023-04-01T05:13:40.208Z,98794.00
2023-04-01T05:18:46.893Z,98798.60
2023-04-01T05:23:49.522Z,98799.40
2023-04-01T05:28:56.323Z,98806.00
2023-04-01T05:33:59.002Z,98813.00
2023-04-01T05:39:01.675Z,98809.20
2023-04-01T05:44:06.954Z,98820.40
2023-04-01T05:49:09.539Z,98817.40
2023-04-01T05:54:14.441Z,98818.80
2023-04-01T05:59:17.603Z,98821.00
2023-04-01T06:04:24.618Z,98832.60
2023-04-01T06:09:31.210Z,98835.00
2023-04-01T06:15:21.337Z,98838.60
2023-04-01T06:20:44.457Z,98838.40
2023-04-01T06:26:39.943Z,98840.00
2023-04-01T06:32:43.800Z,98844.00
2023-04-01T06:38:24.032Z,98846.40
2023-04-01T06:43:41.426Z,98853.20
2023-04-01T06:49:35.580Z,98855.20
2023-04-01T06:54:46.946Z,98863.80
2023-04-01T06:59:50.395Z,98863.80
2023-04-01T07:04:59.310Z,98866.80
2023-04-01T07:10:24.119Z,98872.00
2023-04-01T07:15:43.333Z,98886.60
2023-04-01T07:20:49.636Z,98890.40
2023-04-01T07:26:11.949Z,98890.00
2023-04-01T07:32:08.303Z,98896.20
2023-04-01T07:37:45.561Z,98903.60
2023-04-01T07:43:28.383Z,98906.00
2023-04-01T07:48:46.878Z,98911.00
2023-04-01T07:54:20.246Z,98915.40
2023-04-01T07:59:46.152Z,98918.00
2023-04-01T08:05:13.658Z,98922.40
2023-04-01T08:10:23.261Z,98921.40
2023-04-01T08:15:38.399Z,98921.60
2023-04-01T08:21:02.804Z,98925.80
2023-04-01T08:26:41.280Z,98928.00
2023-04-01T08:32:01.641Z,98933.40
2023-04-01T08:37:18.499Z,98932.20
2023-04-01T08:42:43.650Z,98936.80
2023-04-01T08:48:00.538Z,98944.40
2023-04-01T08:53:44.783Z,98943.40
2023-04-01T08:59:26.142Z,98940.00
2023-04-01T09:05:05.346Z,98943.60
2023-04-01T09:10:51.333Z,98950.00
2023-04-01T09:16:21.979Z,98945.20
2023-04-01T09:22:27.160Z,98953.60
2023-04-01T09:27:56.997Z,98957.60
2023-04-01T09:33:53.886Z,98976.40
2023-04-01T09:39:33.475Z,98983.20
2023-04-01T09:44:51.504Z,98981.60
2023-04-01T09:50:07.875Z,98986.00
2023-04-01T09:55:51.411Z,98994.60
2023-04-01T10:01:58.443Z,98998.40
2023-04-01T10:07:52.125Z,99012.40
2023-04-01T10:13:42.047Z,99018.80
2023-04-01T10:18:56.719Z,99023.40
2023-04-01T10:24:43.339Z,99029.80
2023-04-01T10:30:34.217Z,99031.00
2023-04-01T10:36:28.520Z,99039.80
2023-04-01T10:42:03.975Z,99045.20
2023-04-01T10:47:17.440Z,99047.60
2023-04-01T10:52:43.790Z,99055.00
2023-04-01T10:58:43.434Z,99051.20
2023-04-01T11:04:12.230Z,99054.60
2023-04-01T11:09:39.256Z,99066.80
2023-04-01T11:15:28.844Z,99069.00
2023-04-01T11:21:01.070Z,99077.80
2023-04-01T11:26:54.382Z,99080.20
2023-04-01T11:32:29.988Z,99077.00
2023-04-01T11:37:37.447Z,99082.80
2023-04-01T11:42:56.271Z,99085.60
2023-04-01T11:48:20.911Z,99079.40
2023-04-01T11:53:51.167Z,99092.40
2023-04-01T11:59:18.276Z,99099.20
2023-04-01T12:05:03.975Z,99113.00
2023-04-01T12:10:40.582Z,99123.40
2023-04-01T12:16:37.008Z,99126.80
2023-04-01T12:22:00.271Z,99128.60
2023-04-01T12:27:55.231Z,99137.00
2023-04-01T12:33:32.117Z,99146.60
2023-04-01T12:39:07.322Z,99149.40
2023-04-01T12:45:00.415Z,99157.00
2023-04-01T12:50:27.921Z,99149.40
2023-04-01T12:55:45.945Z,99162.40
2023-04-01T13:01:30.472Z,99167.20
2023-04-01T13:07:12.217Z,99176.40
2023-04-01T13:12:36.719Z,99188.40
2023-04-01T13:18:09.176Z,99190.40
2023-04-01T13:23:49.315Z,99204.60
2023-04-01T13:29:10.295Z,99204.20
2023-04-01T13:34:49.013Z,99207.00
2023-04-01T13:40:22.541Z,99212.00
2023-04-01T13:45:48.198Z,99213.60
2023-04-01T13:51:31.890Z,99215.00
2023-04-01T13:56:46.160Z,99226.80
2023-04-01T14:02:28.749Z,99241.80
2023-04-01T14:08:08.406Z,99243.00
2023-04-01T14:13:40.922Z,99249.40
2023-04-01T14:19:01.981Z,99251.20
2023-04-01T14:24:48.562Z,99262.00
2023-04-01T14:30:46.017Z,99266.60
2023-04-01T14:36:30.026Z,99270.20
2023-04-01T14:41:57.146Z,99273.80
2023-04-01T14:47:28.540Z,99283.20
2023-04-01T14:52:40.780Z,99296.00
2023-04-01T14:58:10.943Z,99295.60
2023-04-01T15:03:28.148Z,99304.40
2023-04-01T15:09:17.541Z,99314.40
2023-04-01T15:15:16.888Z,99321.80
2023-04-01T15:20:44.072Z,99328.40
2023-04-01T15:26:05.614Z,99342.20
2023-04-01T15:31:31.059Z,99352.60
2023-04-01T15:37:03.962Z,99361.20
2023-04-01T15:42:42.710Z,99365.80
2023-04-01T15:48:27.197Z,99370.00
2023-04-01T15:53:46.353Z,99379.20
2023-04-01T15:59:41.084Z,99388.00
2023-04-01T16:05:02.035Z,99395.60
2023-04-01T16:10:33.291Z,99405.60
2023-04-01T16:16:20.862Z,99412.40
2023-04-01T16:22:16.017Z,99426.60
2023-04-01T16:27:41.002Z,99435.20
2023-04-01T16:33:02.133Z,99441.40
2023-04-01T16:38:25.378Z,99450.20
2023-04-01T16:43:53.092Z,99457.20
2023-04-01T16:49:08.444Z,99469.80
2023-04-01T16:54:43.095Z,99476.80
2023-04-01T17:00:01.912Z,99480.80
2023-04-01T17:05:16.507Z,99489.00
2023-04-01T17:10:52.614Z,99504.20
2023-04-01T17:16:32.421Z,99514.00
2023-04-01T17:22:08.804Z,99520.40
2023-04-01T17:27:40.909Z,99538.20
2023-04-01T17:33:35.989Z,99542.80
2023-04-01T17:39:04.065Z,99546.00
2023-04-01T17:44:41.963Z,99554.00
2023-04-01T17:50:22.521Z,99579.60
2023-04-01T17:55:54.290Z,99577.40
2023-04-01T18:01:23.838Z,99587.40
2023-04-01T18:07:08.803Z,99596.20
2023-04-01T18:12:23.580Z,99599.80
2023-04-01T18:18:11.291Z,99611.00
2023-04-01T18:24:01.615Z,99617.80
2023-04-01T18:29:36.264Z,99626.40
2023-04-01T18:35:07.668Z,99630.60
2023-04-01T18:40:16.351Z,99637.20
2023-04-01T18:45:48.750Z,99649.20
2023-04-01T18:50:59.117Z,99654.80
2023-04-01T18:56:11.656Z,99658.40
2023-04-01T19:01:39.012Z,99661.00
2023-04-01T19:06:52.956Z,99672.20
2023-04-01T19:12:49.261Z,99679.80
2023-04-01T19:18:03.601Z,99685.80
2023-04-01T19:23:56.954Z,99697.20
2023-04-01T19:29:58.140Z,99702.20
2023-04-01T19:35:36.125Z,99703.80
2023-04-01T19:40:55.238Z,99714.80
2023-04-01T19:46:29.659Z,99718.20
2023-04-01T19:51:56.451Z,99731.80
2023-04-01T19:57:37.995Z,99732.60
2023-04-01T20:03:29.661Z,99746.20
2023-04-01T20:08:51.049Z,99748.20
2023-04-01T20:14:16.144Z,99752.80
2023-04-01T20:19:30.658Z,99761.60
2023-04-01T20:24:46.471Z,99767.20
2023-04-01T20:30:24.133Z,99768.20
2023-04-01T20:35:46.861Z,99776.40
2023-04-01T20:41:18.484Z,99776.80
2023-04-01T20:46:37.561Z,99786.00
2023-04-01T20:52:15.500Z,99794.20
2023-04-01T20:57:26.359Z,99802.20
2023-04-01T21:03:12.202Z,99809.20
2023-04-01T21:08:37.411Z,99801.60
2023-04-01T21:14:29.157Z,99816.20
2023-04-01T21:20:18.995Z,99827.40
2023-04-01T21:25:52.828Z,99832.40
2023-04-01T21:31:11.199Z,99835.80
2023-04-01T21:36:47.001Z,99837.20
2023-04-01T21:42:19.659Z,99841.60
2023-04-01T21:48:00.504Z,99844.20
2023-04-01T21:53:53.457Z,99850.20
2023-04-01T21:59:25.034Z,99850.20
2023-04-01T22:05:04.961Z,99852.00
2023-04-01T22:10:41.652Z,99865.40
2023-04-01T22:15:59.737Z,99869.20
2023-04-01T22:21:22.298Z,99875.40
2023-04-01T22:26:52.179Z,99879.20
2023-04-01T22:32:25.971Z,99881.20
2023-04-01T22:37:43.905Z,99887.80
2023-04-01T22:42:58.301Z,99887.40
2023-04-01T22:48:48.753Z,99900.60
2023-04-01T23:05:25.235Z,99920.80
2023-04-01T23:27:26.524Z,99937.80
2023-04-01T23:32:31.083Z,99944.40
2023-04-01T23:37:36.500Z,99953.20
2023-04-01T23:42:42.219Z,99967.20
2023-04-01T23:47:52.103Z,99969.40
2023-04-01T23:53:13.350Z,99970.60
2023-04-01T23:58:42.646Z,99975.20
